sensor_id;sensor_type;location;lat;lon;timestamp;temperature;humidity
53422;DHT22;39319;52.944;5.928;2022-09-09T00:04:03;16.20;99.90
53422;DHT22;39319;52.944;5.928;2022-09-09T00:06:46;16.20;99.90
53422;DHT22;39319;52.944;5.928;2022-09-09T00:09:21;16.20;99.90
53422;DHT22;39319;52.944;5.928;2022-09-09T00:12:00;16.20;99.90
53422;DHT22;39319;52.944;5.928;2022-09-09T00:14:39;16.20;99.90
53422;DHT22;39319;52.944;5.928;2022-09-09T00:22:29;16.00;99.90
53422;DHT22;39319;52.944;5.928;2022-09-09T00:25:08;16.10;99.90
53422;DHT22;39319;52.944;5.928;2022-09-09T00:27:43;16.00;99.90
53422;DHT22;39319;52.944;5.928;2022-09-09T00:30:28;16.00;99.90
53422;DHT22;39319;52.944;5.928;2022-09-09T00:33:01;15.90;99.90
53422;DHT22;39319;52.944;5.928;2022-09-09T00:35:49;16.00;99.90
53422;DHT22;39319;52.944;5.928;2022-09-09T00:41:22;16.00;99.90
53422;DHT22;39319;52.944;5.928;2022-09-09T00:44:11;15.90;99.90
53422;DHT22;39319;52.944;5.928;2022-09-09T00:49:51;16.00;99.90
53422;DHT22;39319;52.944;5.928;2022-09-09T00:55:21;15.90;99.90
53422;DHT22;39319;52.944;5.928;2022-09-09T00:57:52;15.90;99.90
53422;DHT22;39319;52.944;5.928;2022-09-09T01:08:00;15.80;99.90
53422;DHT22;39319;52.944;5.928;2022-09-09T01:10:51;16.00;99.90
53422;DHT22;39319;52.944;5.928;2022-09-09T01:13:35;16.00;99.90
53422;DHT22;39319;52.944;5.928;2022-09-09T01:16:04;16.00;99.90
53422;DHT22;39319;52.944;5.928;2022-09-09T01:18:43;16.00;99.90
53422;DHT22;39319;52.944;5.928;2022-09-09T01:21:22;16.00;99.90
53422;DHT22;39319;52.944;5.928;2022-09-09T01:26:37;16.10;99.90
53422;DHT22;39319;52.944;5.928;2022-09-09T01:29:11;16.10;99.90
53422;DHT22;39319;52.944;5.928;2022-09-09T01:31:41;16.20;99.90
53422;DHT22;39319;52.944;5.928;2022-09-09T01:34:15;16.20;99.90
53422;DHT22;39319;52.944;5.928;2022-09-09T01:37:02;16.20;99.90
53422;DHT22;39319;52.944;5.928;2022-09-09T01:39:33;16.20;99.90
53422;DHT22;39319;52.944;5.928;2022-09-09T01:42:04;16.20;99.90
53422;DHT22;39319;52.944;5.928;2022-09-09T01:44:31;16.20;99.90
53422;DHT22;39319;52.944;5.928;2022-09-09T01:46:57;16.30;99.90
53422;DHT22;39319;52.944;5.928;2022-09-09T01:49:23;16.20;99.90
53422;DHT22;39319;52.944;5.928;2022-09-09T01:51:56;16.30;99.90
53422;DHT22;39319;52.944;5.928;2022-09-09T01:54:24;16.20;99.90
53422;DHT22;39319;52.944;5.928;2022-09-09T01:57:07;16.20;99.90
53422;DHT22;39319;52.944;5.928;2022-09-09T02:02:34;16.20;99.90
53422;DHT22;39319;52.944;5.928;2022-09-09T02:05:43;16.20;99.90
53422;DHT22;39319;52.944;5.928;2022-09-09T02:08:20;16.20;99.90
53422;DHT22;39319;52.944;5.928;2022-09-09T02:10:54;16.30;99.90
53422;DHT22;39319;52.944;5.928;2022-09-09T02:13:21;16.30;99.90
53422;DHT22;39319;52.944;5.928;2022-09-09T02:16:07;16.40;99.90
53422;DHT22;39319;52.944;5.928;2022-09-09T02:21:02;16.30;99.90
53422;DHT22;39319;52.944;5.928;2022-09-09T02:23:28;16.30;99.90
53422;DHT22;39319;52.944;5.928;2022-09-09T02:25:56;16.30;99.90
53422;DHT22;39319;52.944;5.928;2022-09-09T02:28:28;16.30;99.90
53422;DHT22;39319;52.944;5.928;2022-09-09T02:30:56;16.30;99.90
53422;DHT22;39319;52.944;5.928;2022-09-09T02:33:27;16.30;99.90
53422;DHT22;39319;52.944;5.928;2022-09-09T02:35:55;16.30;99.90
53422;DHT22;39319;52.944;5.928;2022-09-09T02:38:30;16.30;99.90
53422;DHT22;39319;52.944;5.928;2022-09-09T02:40:58;16.30;99.90
53422;DHT22;39319;52.944;5.928;2022-09-09T02:43:24;16.20;99.90
53422;DHT22;39319;52.944;5.928;2022-09-09T02:46:03;16.30;99.90
53422;DHT22;39319;52.944;5.928;2022-09-09T02:54:14;16.30;99.90
53422;DHT22;39319;52.944;5.928;2022-09-09T02:56:47;16.20;99.90
53422;DHT22;39319;52.944;5.928;2022-09-09T02:59:15;16.30;99.90
53422;DHT22;39319;52.944;5.928;2022-09-09T03:01:41;16.30;99.90
53422;DHT22;39319;52.944;5.928;2022-09-09T03:04:07;16.30;99.90
53422;DHT22;39319;52.944;5.928;2022-09-09T03:06:33;16.30;99.90
53422;DHT22;39319;52.944;5.928;2022-09-09T03:08:58;16.20;99.90
53422;DHT22;39319;52.944;5.928;2022-09-09T03:11:27;16.30;99.90
53422;DHT22;39319;52.944;5.928;2022-09-09T03:13:53;16.30;99.90
53422;DHT22;39319;52.944;5.928;2022-09-09T03:16:24;16.30;99.90
53422;DHT22;39319;52.944;5.928;2022-09-09T03:18:50;16.30;99.90
53422;DHT22;39319;52.944;5.928;2022-09-09T03:21:16;16.30;99.90
53422;DHT22;39319;52.944;5.928;2022-09-09T03:23:41;16.30;99.90
53422;DHT22;39319;52.944;5.928;2022-09-09T03:26:07;16.20;99.90
53422;DHT22;39319;52.944;5.928;2022-09-09T03:28:33;16.30;99.90
53422;DHT22;39319;52.944;5.928;2022-09-09T03:31:02;16.40;99.90
53422;DHT22;39319;52.944;5.928;2022-09-09T03:33:28;16.30;99.90
53422;DHT22;39319;52.944;5.928;2022-09-09T03:35:55;16.30;99.90
53422;DHT22;39319;52.944;5.928;2022-09-09T03:38:23;16.30;99.90
53422;DHT22;39319;52.944;5.928;2022-09-09T03:40:53;16.40;99.90
53422;DHT22;39319;52.944;5.928;2022-09-09T03:43:23;16.40;99.90
53422;DHT22;39319;52.944;5.928;2022-09-09T03:45:50;16.30;99.90
53422;DHT22;39319;52.944;5.928;2022-09-09T03:48:17;16.40;99.90
53422;DHT22;39319;52.944;5.928;2022-09-09T03:50:50;16.30;99.90
53422;DHT22;39319;52.944;5.928;2022-09-09T03:53:19;16.30;99.90
53422;DHT22;39319;52.944;5.928;2022-09-09T03:55:55;16.30;99.90
53422;DHT22;39319;52.944;5.928;2022-09-09T03:58:22;16.30;99.90
53422;DHT22;39319;52.944;5.928;2022-09-09T04:00:57;16.30;99.90
53422;DHT22;39319;52.944;5.928;2022-09-09T04:03:23;16.30;99.90
53422;DHT22;39319;52.944;5.928;2022-09-09T04:05:51;16.30;99.90
53422;DHT22;39319;52.944;5.928;2022-09-09T04:08:17;16.30;99.90
53422;DHT22;39319;52.944;5.928;2022-09-09T04:10:48;16.30;99.90
53422;DHT22;39319;52.944;5.928;2022-09-09T04:13:15;16.30;99.90
53422;DHT22;39319;52.944;5.928;2022-09-09T04:15:44;16.30;99.90
53422;DHT22;39319;52.944;5.928;2022-09-09T04:18:10;16.40;99.90
53422;DHT22;39319;52.944;5.928;2022-09-09T04:20:37;16.30;99.90
53422;DHT22;39319;52.944;5.928;2022-09-09T04:23:03;16.30;99.90
53422;DHT22;39319;52.944;5.928;2022-09-09T04:25:30;16.30;99.90
53422;DHT22;39319;52.944;5.928;2022-09-09T04:27:57;16.20;99.90
53422;DHT22;39319;52.944;5.928;2022-09-09T04:30:24;16.20;99.90
53422;DHT22;39319;52.944;5.928;2022-09-09T04:32:50;16.40;99.90
53422;DHT22;39319;52.944;5.928;2022-09-09T04:35:16;16.20;99.90
53422;DHT22;39319;52.944;5.928;2022-09-09T04:37:41;16.20;99.90
53422;DHT22;39319;52.944;5.928;2022-09-09T04:40:09;16.20;99.90
53422;DHT22;39319;52.944;5.928;2022-09-09T04:42:38;16.20;99.90
53422;DHT22;39319;52.944;5.928;2022-09-09T04:45:05;16.00;99.90
53422;DHT22;39319;52.944;5.928;2022-09-09T04:47:32;16.10;99.90
53422;DHT22;39319;52.944;5.928;2022-09-09T04:49:58;16.20;99.90
53422;DHT22;39319;52.944;5.928;2022-09-09T04:52:24;16.10;99.90
53422;DHT22;39319;52.944;5.928;2022-09-09T04:54:50;16.30;99.90
53422;DHT22;39319;52.944;5.928;2022-09-09T04:57:15;16.00;99.90
53422;DHT22;39319;52.944;5.928;2022-09-09T04:59:43;16.20;99.90
53422;DHT22;39319;52.944;5.928;2022-09-09T05:02:09;16.10;99.90
53422;DHT22;39319;52.944;5.928;2022-09-09T05:04:36;16.00;99.90
53422;DHT22;39319;52.944;5.928;2022-09-09T05:07:01;16.00;99.90
53422;DHT22;39319;52.944;5.928;2022-09-09T05:09:27;16.40;99.90
53422;DHT22;39319;52.944;5.928;2022-09-09T05:11:53;16.00;99.90
53422;DHT22;39319;52.944;5.928;2022-09-09T05:14:18;16.00;99.90
53422;DHT22;39319;52.944;5.928;2022-09-09T05:16:45;16.00;99.90
53422;DHT22;39319;52.944;5.928;2022-09-09T05:19:10;16.00;99.90
53422;DHT22;39319;52.944;5.928;2022-09-09T05:21:37;16.00;99.90
53422;DHT22;39319;52.944;5.928;2022-09-09T05:24:02;16.00;99.90
53422;DHT22;39319;52.944;5.928;2022-09-09T05:26:28;16.00;99.90
53422;DHT22;39319;52.944;5.928;2022-09-09T05:28:55;16.00;99.90
53422;DHT22;39319;52.944;5.928;2022-09-09T05:31:21;16.10;99.90
53422;DHT22;39319;52.944;5.928;2022-09-09T05:33:47;16.10;99.90
53422;DHT22;39319;52.944;5.928;2022-09-09T05:36:20;16.10;99.90
53422;DHT22;39319;52.944;5.928;2022-09-09T05:38:46;16.00;99.90
53422;DHT22;39319;52.944;5.928;2022-09-09T05:41:12;16.10;99.90
53422;DHT22;39319;52.944;5.928;2022-09-09T05:43:41;16.10;99.90
53422;DHT22;39319;52.944;5.928;2022-09-09T05:46:12;16.10;99.90
53422;DHT22;39319;52.944;5.928;2022-09-09T05:48:40;16.10;99.90
53422;DHT22;39319;52.944;5.928;2022-09-09T05:51:11;16.20;99.90
53422;DHT22;39319;52.944;5.928;2022-09-09T05:53:42;16.20;99.90
53422;DHT22;39319;52.944;5.928;2022-09-09T05:56:10;15.50;99.90
53422;DHT22;39319;52.944;5.928;2022-09-09T05:58:37;16.20;99.90
53422;DHT22;39319;52.944;5.928;2022-09-09T06:01:12;16.20;99.90
53422;DHT22;39319;52.944;5.928;2022-09-09T06:03:40;16.20;99.90
53422;DHT22;39319;52.944;5.928;2022-09-09T06:06:12;16.20;99.90
53422;DHT22;39319;52.944;5.928;2022-09-09T06:08:40;16.20;99.90
53422;DHT22;39319;52.944;5.928;2022-09-09T06:11:12;16.30;99.90
53422;DHT22;39319;52.944;5.928;2022-09-09T06:13:38;16.30;99.90
53422;DHT22;39319;52.944;5.928;2022-09-09T06:16:14;16.20;99.90
53422;DHT22;39319;52.944;5.928;2022-09-09T06:18:41;16.30;99.90
53422;DHT22;39319;52.944;5.928;2022-09-09T06:21:11;16.20;99.90
53422;DHT22;39319;52.944;5.928;2022-09-09T06:23:40;16.20;99.90
53422;DHT22;39319;52.944;5.928;2022-09-09T06:26:09;16.30;99.90
53422;DHT22;39319;52.944;5.928;2022-09-09T06:28:36;16.30;99.90
53422;DHT22;39319;52.944;5.928;2022-09-09T06:31:04;16.30;99.90
53422;DHT22;39319;52.944;5.928;2022-09-09T06:33:49;16.30;99.90
53422;DHT22;39319;52.944;5.928;2022-09-09T06:36:21;16.30;99.90
53422;DHT22;39319;52.944;5.928;2022-09-09T06:38:47;16.30;99.90
53422;DHT22;39319;52.944;5.928;2022-09-09T06:41:15;16.30;99.90
53422;DHT22;39319;52.944;5.928;2022-09-09T06:43:41;16.30;99.90
53422;DHT22;39319;52.944;5.928;2022-09-09T06:46:17;16.30;99.90
53422;DHT22;39319;52.944;5.928;2022-09-09T06:48:44;16.40;99.90
53422;DHT22;39319;52.944;5.928;2022-09-09T06:51:15;16.30;99.90
53422;DHT22;39319;52.944;5.928;2022-09-09T06:53:44;16.30;99.90
53422;DHT22;39319;52.944;5.928;2022-09-09T06:58:40;16.40;99.90
53422;DHT22;39319;52.944;5.928;2022-09-09T07:01:14;16.30;99.90
53422;DHT22;39319;52.944;5.928;2022-09-09T07:03:41;16.30;99.90
53422;DHT22;39319;52.944;5.928;2022-09-09T07:06:09;16.20;99.90
53422;DHT22;39319;52.944;5.928;2022-09-09T07:08:40;16.30;99.90
53422;DHT22;39319;52.944;5.928;2022-09-09T07:11:07;16.30;99.90
53422;DHT22;39319;52.944;5.928;2022-09-09T07:13:34;16.30;99.90
53422;DHT22;39319;52.944;5.928;2022-09-09T07:16:11;16.30;99.90
53422;DHT22;39319;52.944;5.928;2022-09-09T07:18:39;16.30;99.90
53422;DHT22;39319;52.944;5.928;2022-09-09T07:21:05;16.30;99.90
53422;DHT22;39319;52.944;5.928;2022-09-09T07:23:32;16.30;99.90
53422;DHT22;39319;52.944;5.928;2022-09-09T07:25:59;16.30;99.90
53422;DHT22;39319;52.944;5.928;2022-09-09T07:28:25;16.40;99.90
53422;DHT22;39319;52.944;5.928;2022-09-09T07:31:00;16.40;99.90
53422;DHT22;39319;52.944;5.928;2022-09-09T07:33:29;16.40;99.90
53422;DHT22;39319;52.944;5.928;2022-09-09T07:36:10;16.50;99.90
53422;DHT22;39319;52.944;5.928;2022-09-09T07:38:43;16.50;99.90
53422;DHT22;39319;52.944;5.928;2022-09-09T07:41:14;16.60;99.90
53422;DHT22;39319;52.944;5.928;2022-09-09T07:43:42;16.60;99.90
53422;DHT22;39319;52.944;5.928;2022-09-09T07:46:10;16.70;99.90
53422;DHT22;39319;52.944;5.928;2022-09-09T07:48:36;16.80;99.90
53422;DHT22;39319;52.944;5.928;2022-09-09T07:51:14;16.80;99.90
53422;DHT22;39319;52.944;5.928;2022-09-09T07:53:44;16.80;99.90
53422;DHT22;39319;52.944;5.928;2022-09-09T07:56:15;16.80;99.90
53422;DHT22;39319;52.944;5.928;2022-09-09T07:58:45;17.00;99.90
53422;DHT22;39319;52.944;5.928;2022-09-09T08:01:17;17.00;99.90
53422;DHT22;39319;52.944;5.928;2022-09-09T08:03:44;17.10;99.90
53422;DHT22;39319;52.944;5.928;2022-09-09T08:06:11;17.10;99.90
53422;DHT22;39319;52.944;5.928;2022-09-09T08:08:38;17.20;99.90
53422;DHT22;39319;52.944;5.928;2022-09-09T08:11:14;17.20;99.90
53422;DHT22;39319;52.944;5.928;2022-09-09T08:13:41;17.30;99.90
53422;DHT22;39319;52.944;5.928;2022-09-09T08:16:10;17.40;99.90
53422;DHT22;39319;52.944;5.928;2022-09-09T08:18:37;17.40;99.90
53422;DHT22;39319;52.944;5.928;2022-09-09T08:21:11;17.50;99.90
53422;DHT22;39319;52.944;5.928;2022-09-09T08:23:41;17.50;99.90
53422;DHT22;39319;52.944;5.928;2022-09-09T08:26:11;17.60;99.90
53422;DHT22;39319;52.944;5.928;2022-09-09T08:28:37;17.60;99.90
53422;DHT22;39319;52.944;5.928;2022-09-09T08:31:30;17.70;99.90
53422;DHT22;39319;52.944;5.928;2022-09-09T08:33:57;17.70;99.90
53422;DHT22;39319;52.944;5.928;2022-09-09T08:36:27;17.80;99.90
53422;DHT22;39319;52.944;5.928;2022-09-09T08:38:57;17.80;99.90
53422;DHT22;39319;52.944;5.928;2022-09-09T08:50:07;18.00;99.90
53422;DHT22;39319;52.944;5.928;2022-09-09T08:57:50;18.10;99.90
53422;DHT22;39319;52.944;5.928;2022-09-09T09:00:17;18.20;99.90
53422;DHT22;39319;52.944;5.928;2022-09-09T09:03:02;18.20;99.90
53422;DHT22;39319;52.944;5.928;2022-09-09T09:10:55;18.20;99.90
53422;DHT22;39319;52.944;5.928;2022-09-09T09:16:23;18.30;99.90
53422;DHT22;39319;52.944;5.928;2022-09-09T09:18:52;18.40;99.90
53422;DHT22;39319;52.944;5.928;2022-09-09T09:21:48;18.40;99.90
53422;DHT22;39319;52.944;5.928;2022-09-09T09:24:49;18.40;99.90
53422;DHT22;39319;52.944;5.928;2022-09-09T09:30:22;18.40;99.90
53422;DHT22;39319;52.944;5.928;2022-09-09T09:33:01;18.50;99.90
53422;DHT22;39319;52.944;5.928;2022-09-09T09:35:28;18.60;99.90
53422;DHT22;39319;52.944;5.928;2022-09-09T09:37:54;18.60;99.90
53422;DHT22;39319;52.944;5.928;2022-09-09T09:40:21;18.60;99.90
53422;DHT22;39319;52.944;5.928;2022-09-09T09:42:57;18.70;99.90
53422;DHT22;39319;52.944;5.928;2022-09-09T09:45:28;18.60;99.90
53422;DHT22;39319;52.944;5.928;2022-09-09T09:48:13;18.70;99.90
53422;DHT22;39319;52.944;5.928;2022-09-09T09:51:00;18.80;99.90
53422;DHT22;39319;52.944;5.928;2022-09-09T09:53:31;18.70;99.90
53422;DHT22;39319;52.944;5.928;2022-09-09T09:56:09;18.80;99.90
53422;DHT22;39319;52.944;5.928;2022-09-09T10:01:27;18.90;99.90
53422;DHT22;39319;52.944;5.928;2022-09-09T10:03:57;19.00;99.90
53422;DHT22;39319;52.944;5.928;2022-09-09T10:06:35;19.00;99.90
53422;DHT22;39319;52.944;5.928;2022-09-09T10:09:04;19.10;99.90
53422;DHT22;39319;52.944;5.928;2022-09-09T10:27:11;19.00;99.90
53422;DHT22;39319;52.944;5.928;2022-09-09T10:35:31;18.90;99.90
53422;DHT22;39319;52.944;5.928;2022-09-09T10:43:33;18.80;99.90
53422;DHT22;39319;52.944;5.928;2022-09-09T10:51:31;19.00;99.90
53422;DHT22;39319;52.944;5.928;2022-09-09T10:54:06;19.20;99.90
53422;DHT22;39319;52.944;5.928;2022-09-09T10:56:35;19.00;99.90
53422;DHT22;39319;52.944;5.928;2022-09-09T10:59:17;19.10;99.90
53422;DHT22;39319;52.944;5.928;2022-09-09T11:01:55;19.10;99.90
53422;DHT22;39319;52.944;5.928;2022-09-09T11:08:01;19.00;99.90
53422;DHT22;39319;52.944;5.928;2022-09-09T11:16:58;18.90;99.90
53422;DHT22;39319;52.944;5.928;2022-09-09T11:19:41;19.00;99.90
53422;DHT22;39319;52.944;5.928;2022-09-09T11:31:45;19.60;99.90
53422;DHT22;39319;52.944;5.928;2022-09-09T11:41:05;19.70;99.90
53422;DHT22;39319;52.944;5.928;2022-09-09T11:43:42;19.60;99.90
53422;DHT22;39319;52.944;5.928;2022-09-09T11:46:08;19.70;99.90
53422;DHT22;39319;52.944;5.928;2022-09-09T11:48:37;19.70;99.90
53422;DHT22;39319;52.944;5.928;2022-09-09T11:53:58;19.80;99.90
53422;DHT22;39319;52.944;5.928;2022-09-09T11:56:28;19.90;99.90
53422;DHT22;39319;52.944;5.928;2022-09-09T12:05:14;19.80;99.90
53422;DHT22;39319;52.944;5.928;2022-09-09T12:07:56;19.80;99.90
53422;DHT22;39319;52.944;5.928;2022-09-09T12:14:03;19.80;99.90
53422;DHT22;39319;52.944;5.928;2022-09-09T12:16:34;19.80;99.90
53422;DHT22;39319;52.944;5.928;2022-09-09T12:19:21;19.80;99.90
53422;DHT22;39319;52.944;5.928;2022-09-09T12:31:02;20.30;99.90
53422;DHT22;39319;52.944;5.928;2022-09-09T12:33:36;20.20;99.90
53422;DHT22;39319;52.944;5.928;2022-09-09T12:36:03;20.30;99.20
53422;DHT22;39319;52.944;5.928;2022-09-09T12:38:39;20.30;98.90
53422;DHT22;39319;52.944;5.928;2022-09-09T12:41:05;20.30;98.70
53422;DHT22;39319;52.944;5.928;2022-09-09T12:43:31;20.60;98.80
53422;DHT22;39319;52.944;5.928;2022-09-09T12:46:08;21.00;99.20
53422;DHT22;39319;52.944;5.928;2022-09-09T12:48:49;21.40;99.40
53422;DHT22;39319;52.944;5.928;2022-09-09T12:51:29;21.60;98.90
53422;DHT22;39319;52.944;5.928;2022-09-09T12:53:57;21.50;98.40
53422;DHT22;39319;52.944;5.928;2022-09-09T12:56:33;21.40;97.40
53422;DHT22;39319;52.944;5.928;2022-09-09T12:58:59;21.30;98.10
53422;DHT22;39319;52.944;5.928;2022-09-09T13:01:33;21.10;98.00
53422;DHT22;39319;52.944;5.928;2022-09-09T13:03:59;20.90;97.90
53422;DHT22;39319;52.944;5.928;2022-09-09T13:06:27;20.80;98.30
53422;DHT22;39319;52.944;5.928;2022-09-09T13:08:54;20.70;99.20
53422;DHT22;39319;52.944;5.928;2022-09-09T13:13:57;20.50;99.90
53422;DHT22;39319;52.944;5.928;2022-09-09T13:16:29;20.40;99.90
53422;DHT22;39319;52.944;5.928;2022-09-09T13:19:09;20.40;99.90
53422;DHT22;39319;52.944;5.928;2022-09-09T13:21:39;20.40;99.90
53422;DHT22;39319;52.944;5.928;2022-09-09T13:24:30;20.40;99.90
53422;DHT22;39319;52.944;5.928;2022-09-09T13:27:01;20.50;99.90
53422;DHT22;39319;52.944;5.928;2022-09-09T13:29:27;20.50;99.90
53422;DHT22;39319;52.944;5.928;2022-09-09T13:31:54;20.80;99.90
53422;DHT22;39319;52.944;5.928;2022-09-09T13:34:33;21.20;99.90
53422;DHT22;39319;52.944;5.928;2022-09-09T13:37:02;21.40;99.90
53422;DHT22;39319;52.944;5.928;2022-09-09T13:39:31;21.70;99.90
53422;DHT22;39319;52.944;5.928;2022-09-09T13:41:57;21.90;99.90
53422;DHT22;39319;52.944;5.928;2022-09-09T13:44:27;22.00;99.90
53422;DHT22;39319;52.944;5.928;2022-09-09T13:47:19;21.90;99.90
53422;DHT22;39319;52.944;5.928;2022-09-09T13:49:45;21.70;99.30
53422;DHT22;39319;52.944;5.928;2022-09-09T13:52:18;21.70;99.70
53422;DHT22;39319;52.944;5.928;2022-09-09T13:54:49;21.60;99.60
53422;DHT22;39319;52.944;5.928;2022-09-09T13:57:20;21.70;99.90
53422;DHT22;39319;52.944;5.928;2022-09-09T13:59:47;21.80;99.80
53422;DHT22;39319;52.944;5.928;2022-09-09T14:02:13;21.90;99.60
53422;DHT22;39319;52.944;5.928;2022-09-09T14:04:42;21.40;99.20
53422;DHT22;39319;52.944;5.928;2022-09-09T14:07:18;22.20;98.90
53422;DHT22;39319;52.944;5.928;2022-09-09T14:09:44;22.40;98.40
53422;DHT22;39319;52.944;5.928;2022-09-09T14:12:16;22.50;98.40
53422;DHT22;39319;52.944;5.928;2022-09-09T14:14:42;22.60;97.90
53422;DHT22;39319;52.944;5.928;2022-09-09T14:17:09;22.50;96.90
53422;DHT22;39319;52.944;5.928;2022-09-09T14:19:34;22.40;97.00
53422;DHT22;39319;52.944;5.928;2022-09-09T14:22:00;22.20;97.00
53422;DHT22;39319;52.944;5.928;2022-09-09T14:24:27;22.00;97.00
53422;DHT22;39319;52.944;5.928;2022-09-09T14:26:53;21.90;97.20
53422;DHT22;39319;52.944;5.928;2022-09-09T14:29:19;21.70;97.30
53422;DHT22;39319;52.944;5.928;2022-09-09T14:31:45;21.60;97.60
53422;DHT22;39319;52.944;5.928;2022-09-09T14:34:11;21.40;97.60
53422;DHT22;39319;52.944;5.928;2022-09-09T14:36:37;21.30;97.70
53422;DHT22;39319;52.944;5.928;2022-09-09T14:39:04;21.10;97.50
53422;DHT22;39319;52.944;5.928;2022-09-09T14:41:30;21.00;97.80
53422;DHT22;39319;52.944;5.928;2022-09-09T14:43:55;20.90;97.80
53422;DHT22;39319;52.944;5.928;2022-09-09T14:46:25;20.70;98.20
53422;DHT22;39319;52.944;5.928;2022-09-09T14:48:52;20.50;98.40
53422;DHT22;39319;52.944;5.928;2022-09-09T14:51:23;20.40;99.20
53422;DHT22;39319;52.944;5.928;2022-09-09T14:53:52;20.20;99.70
53422;DHT22;39319;52.944;5.928;2022-09-09T14:56:23;20.10;99.90
53422;DHT22;39319;52.944;5.928;2022-09-09T14:58:56;20.10;99.90
53422;DHT22;39319;52.944;5.928;2022-09-09T15:01:23;20.00;99.90
53422;DHT22;39319;52.944;5.928;2022-09-09T15:04:00;20.00;99.90
53422;DHT22;39319;52.944;5.928;2022-09-09T15:06:29;19.90;99.90
53422;DHT22;39319;52.944;5.928;2022-09-09T15:08:56;19.90;99.90
53422;DHT22;39319;52.944;5.928;2022-09-09T15:11:24;19.90;99.90
53422;DHT22;39319;52.944;5.928;2022-09-09T15:13:52;19.80;99.90
53422;DHT22;39319;52.944;5.928;2022-09-09T15:16:22;19.90;99.90
53422;DHT22;39319;52.944;5.928;2022-09-09T15:18:53;19.80;99.90
53422;DHT22;39319;52.944;5.928;2022-09-09T15:21:23;19.80;99.90
53422;DHT22;39319;52.944;5.928;2022-09-09T15:23:49;19.90;99.90
53422;DHT22;39319;52.944;5.928;2022-09-09T15:26:16;20.00;99.90
53422;DHT22;39319;52.944;5.928;2022-09-09T15:28:44;20.10;99.90
53422;DHT22;39319;52.944;5.928;2022-09-09T15:31:15;20.30;99.90
53422;DHT22;39319;52.944;5.928;2022-09-09T15:36:22;20.50;99.90
53422;DHT22;39319;52.944;5.928;2022-09-09T15:38:49;20.60;99.90
53422;DHT22;39319;52.944;5.928;2022-09-09T15:41:17;20.70;99.90
53422;DHT22;39319;52.944;5.928;2022-09-09T15:43:47;20.70;99.90
53422;DHT22;39319;52.944;5.928;2022-09-09T15:46:52;20.70;99.90
53422;DHT22;39319;52.944;5.928;2022-09-09T15:49:26;20.70;99.90
53422;DHT22;39319;52.944;5.928;2022-09-09T15:54:20;20.50;99.90
53422;DHT22;39319;52.944;5.928;2022-09-09T15:56:50;20.60;99.90
53422;DHT22;39319;52.944;5.928;2022-09-09T15:59:16;20.50;99.90
53422;DHT22;39319;52.944;5.928;2022-09-09T16:01:44;20.60;99.90
53422;DHT22;39319;52.944;5.928;2022-09-09T16:04:10;20.50;99.90
53422;DHT22;39319;52.944;5.928;2022-09-09T16:06:36;20.60;99.90
53422;DHT22;39319;52.944;5.928;2022-09-09T16:09:05;20.50;99.90
53422;DHT22;39319;52.944;5.928;2022-09-09T16:11:34;20.60;99.90
53422;DHT22;39319;52.944;5.928;2022-09-09T16:14:01;20.60;99.90
53422;DHT22;39319;52.944;5.928;2022-09-09T16:16:29;20.60;99.90
53422;DHT22;39319;52.944;5.928;2022-09-09T16:19:02;20.60;99.90
53422;DHT22;39319;52.944;5.928;2022-09-09T16:21:34;20.60;99.90
53422;DHT22;39319;52.944;5.928;2022-09-09T16:24:01;20.60;99.90
53422;DHT22;39319;52.944;5.928;2022-09-09T16:26:33;20.50;99.90
53422;DHT22;39319;52.944;5.928;2022-09-09T16:29:00;20.50;99.90
53422;DHT22;39319;52.944;5.928;2022-09-09T16:31:28;20.40;99.90
53422;DHT22;39319;52.944;5.928;2022-09-09T16:33:54;20.40;99.90
53422;DHT22;39319;52.944;5.928;2022-09-09T16:36:26;20.30;99.90
53422;DHT22;39319;52.944;5.928;2022-09-09T16:38:53;20.30;99.90
53422;DHT22;39319;52.944;5.928;2022-09-09T16:41:20;20.30;99.90
53422;DHT22;39319;52.944;5.928;2022-09-09T16:43:46;20.20;99.90
53422;DHT22;39319;52.944;5.928;2022-09-09T16:46:19;20.20;99.90
53422;DHT22;39319;52.944;5.928;2022-09-09T16:48:46;20.10;99.90
53422;DHT22;39319;52.944;5.928;2022-09-09T16:51:20;20.10;99.90
53422;DHT22;39319;52.944;5.928;2022-09-09T16:53:48;20.00;99.90
53422;DHT22;39319;52.944;5.928;2022-09-09T16:56:22;20.00;99.90
53422;DHT22;39319;52.944;5.928;2022-09-09T16:58:56;19.90;99.90
53422;DHT22;39319;52.944;5.928;2022-09-09T17:01:32;19.90;99.90
53422;DHT22;39319;52.944;5.928;2022-09-09T17:04:01;19.90;99.90
53422;DHT22;39319;52.944;5.928;2022-09-09T17:06:28;19.90;99.90
53422;DHT22;39319;52.944;5.928;2022-09-09T17:08:59;19.80;99.90
53422;DHT22;39319;52.944;5.928;2022-09-09T17:11:26;19.80;99.90
53422;DHT22;39319;52.944;5.928;2022-09-09T17:13:53;19.70;99.90
53422;DHT22;39319;52.944;5.928;2022-09-09T17:16:21;19.70;99.90
53422;DHT22;39319;52.944;5.928;2022-09-09T17:18:48;19.70;99.90
53422;DHT22;39319;52.944;5.928;2022-09-09T17:21:17;19.70;99.90
53422;DHT22;39319;52.944;5.928;2022-09-09T17:23:44;19.60;99.90
53422;DHT22;39319;52.944;5.928;2022-09-09T17:26:12;19.60;99.90
53422;DHT22;39319;52.944;5.928;2022-09-09T17:28:39;19.70;99.90
53422;DHT22;39319;52.944;5.928;2022-09-09T17:31:10;19.60;99.90
53422;DHT22;39319;52.944;5.928;2022-09-09T17:33:37;19.60;99.90
53422;DHT22;39319;52.944;5.928;2022-09-09T17:36:10;19.60;99.90
53422;DHT22;39319;52.944;5.928;2022-09-09T17:38:37;19.50;99.90
53422;DHT22;39319;52.944;5.928;2022-09-09T17:41:15;19.50;99.90
53422;DHT22;39319;52.944;5.928;2022-09-09T17:43:41;19.50;99.90
53422;DHT22;39319;52.944;5.928;2022-09-09T17:48:39;19.40;99.90
53422;DHT22;39319;52.944;5.928;2022-09-09T17:51:06;19.40;99.90
53422;DHT22;39319;52.944;5.928;2022-09-09T17:53:45;19.40;99.90
53422;DHT22;39319;52.944;5.928;2022-09-09T17:56:13;19.40;99.90
53422;DHT22;39319;52.944;5.928;2022-09-09T17:58:42;19.40;99.90
53422;DHT22;39319;52.944;5.928;2022-09-09T18:01:15;19.30;99.90
53422;DHT22;39319;52.944;5.928;2022-09-09T18:03:42;19.20;99.90
53422;DHT22;39319;52.944;5.928;2022-09-09T18:06:11;19.20;99.90
53422;DHT22;39319;52.944;5.928;2022-09-09T18:08:48;19.20;99.90
53422;DHT22;39319;52.944;5.928;2022-09-09T18:11:15;19.20;99.90
53422;DHT22;39319;52.944;5.928;2022-09-09T18:13:40;19.10;99.90
53422;DHT22;39319;52.944;5.928;2022-09-09T18:16:08;19.10;99.90
53422;DHT22;39319;52.944;5.928;2022-09-09T18:18:36;19.10;99.90
53422;DHT22;39319;52.944;5.928;2022-09-09T18:21:04;19.00;99.90
53422;DHT22;39319;52.944;5.928;2022-09-09T18:23:37;19.00;99.90
53422;DHT22;39319;52.944;5.928;2022-09-09T18:26:16;19.00;99.90
53422;DHT22;39319;52.944;5.928;2022-09-09T18:28:46;19.00;99.90
53422;DHT22;39319;52.944;5.928;2022-09-09T18:31:14;19.00;99.90